sensor_id;sensor_type;location;lat;lon;timestamp;temperature;humidity
7129;DHT22;3606;52.930;8.644;2022-08-02T00:02:10;9.80;99.90
7129;DHT22;3606;52.930;8.644;2022-08-02T00:04:35;9.80;99.90
7129;DHT22;3606;52.930;8.644;2022-08-02T00:07:01;9.80;99.90
7129;DHT22;3606;52.930;8.644;2022-08-02T00:09:27;9.70;99.90
7129;DHT22;3606;52.930;8.644;2022-08-02T00:11:53;9.70;99.90
7129;DHT22;3606;52.930;8.644;2022-08-02T00:14:18;9.60;99.90
7129;DHT22;3606;52.930;8.644;2022-08-02T00:16:44;9.60;99.90
7129;DHT22;3606;52.930;8.644;2022-08-02T00:19:10;9.60;99.90
7129;DHT22;3606;52.930;8.644;2022-08-02T00:21:35;9.50;99.90
7129;DHT22;3606;52.930;8.644;2022-08-02T00:24:01;9.50;99.90
7129;DHT22;3606;52.930;8.644;2022-08-02T00:26:26;9.50;99.90
7129;DHT22;3606;52.930;8.644;2022-08-02T00:28:52;9.40;99.90
7129;DHT22;3606;52.930;8.644;2022-08-02T00:31:18;9.40;99.90
7129;DHT22;3606;52.930;8.644;2022-08-02T00:33:43;9.40;99.90
7129;DHT22;3606;52.930;8.644;2022-08-02T00:36:09;9.30;99.90
7129;DHT22;3606;52.930;8.644;2022-08-02T00:38:34;9.30;99.90
7129;DHT22;3606;52.930;8.644;2022-08-02T00:41:00;9.30;99.90
7129;DHT22;3606;52.930;8.644;2022-08-02T00:43:26;9.20;99.90
7129;DHT22;3606;52.930;8.644;2022-08-02T00:45:51;9.20;99.90
7129;DHT22;3606;52.930;8.644;2022-08-02T00:48:17;9.20;99.90
7129;DHT22;3606;52.930;8.644;2022-08-02T00:50:43;9.20;99.90
7129;DHT22;3606;52.930;8.644;2022-08-02T00:53:08;9.10;99.90
7129;DHT22;3606;52.930;8.644;2022-08-02T00:55:35;9.10;99.90
7129;DHT22;3606;52.930;8.644;2022-08-02T00:58:01;9.10;99.90
7129;DHT22;3606;52.930;8.644;2022-08-02T01:00:27;9.10;99.90
7129;DHT22;3606;52.930;8.644;2022-08-02T01:02:52;9.00;99.90
7129;DHT22;3606;52.930;8.644;2022-08-02T01:05:18;9.00;99.90
7129;DHT22;3606;52.930;8.644;2022-08-02T01:07:43;9.00;99.90
7129;DHT22;3606;52.930;8.644;2022-08-02T01:10:09;8.90;99.90
7129;DHT22;3606;52.930;8.644;2022-08-02T01:12:35;8.90;99.90
7129;DHT22;3606;52.930;8.644;2022-08-02T01:15:05;8.90;99.90
7129;DHT22;3606;52.930;8.644;2022-08-02T01:26:57;8.80;99.90
7129;DHT22;3606;52.930;8.644;2022-08-02T01:31:37;8.70;99.90
7129;DHT22;3606;52.930;8.644;2022-08-02T01:37:02;8.70;99.90
7129;DHT22;3606;52.930;8.644;2022-08-02T01:39:33;8.60;99.90
7129;DHT22;3606;52.930;8.644;2022-08-02T01:42:00;8.60;99.90
7129;DHT22;3606;52.930;8.644;2022-08-02T01:44:29;8.60;99.90
7129;DHT22;3606;52.930;8.644;2022-08-02T01:47:00;8.60;99.90
7129;DHT22;3606;52.930;8.644;2022-08-02T01:49:28;8.60;99.90
7129;DHT22;3606;52.930;8.644;2022-08-02T01:51:57;8.60;99.90
7129;DHT22;3606;52.930;8.644;2022-08-02T01:54:44;8.60;99.90
7129;DHT22;3606;52.930;8.644;2022-08-02T01:57:12;8.60;99.90
7129;DHT22;3606;52.930;8.644;2022-08-02T01:59:39;8.60;99.90
7129;DHT22;3606;52.930;8.644;2022-08-02T02:02:07;8.60;99.90
7129;DHT22;3606;52.930;8.644;2022-08-02T02:04:34;8.70;99.90
7129;DHT22;3606;52.930;8.644;2022-08-02T02:07:02;8.80;99.90
7129;DHT22;3606;52.930;8.644;2022-08-02T02:09:29;8.80;99.90
7129;DHT22;3606;52.930;8.644;2022-08-02T02:11:57;8.90;99.90
7129;DHT22;3606;52.930;8.644;2022-08-02T02:14:23;8.90;99.90
7129;DHT22;3606;52.930;8.644;2022-08-02T02:16:49;8.90;99.90
7129;DHT22;3606;52.930;8.644;2022-08-02T02:19:17;8.90;99.90
7129;DHT22;3606;52.930;8.644;2022-08-02T02:21:44;8.90;99.90
7129;DHT22;3606;52.930;8.644;2022-08-02T02:24:10;8.80;99.90
7129;DHT22;3606;52.930;8.644;2022-08-02T02:26:37;8.80;99.90
7129;DHT22;3606;52.930;8.644;2022-08-02T02:29:06;8.80;99.90
7129;DHT22;3606;52.930;8.644;2022-08-02T02:31:36;8.80;99.90
7129;DHT22;3606;52.930;8.644;2022-08-02T02:34:07;8.80;99.90
7129;DHT22;3606;52.930;8.644;2022-08-02T02:36:38;8.70;99.90
7129;DHT22;3606;52.930;8.644;2022-08-02T02:39:05;8.80;99.90
7129;DHT22;3606;52.930;8.644;2022-08-02T02:41:32;8.90;99.90
7129;DHT22;3606;52.930;8.644;2022-08-02T02:44:00;8.90;99.90
7129;DHT22;3606;52.930;8.644;2022-08-02T02:46:29;8.90;99.90
7129;DHT22;3606;52.930;8.644;2022-08-02T02:48:57;8.90;99.90
7129;DHT22;3606;52.930;8.644;2022-08-02T02:51:24;8.90;99.90
7129;DHT22;3606;52.930;8.644;2022-08-02T02:53:51;8.70;99.90
7129;DHT22;3606;52.930;8.644;2022-08-02T02:56:17;8.70;99.90
7129;DHT22;3606;52.930;8.644;2022-08-02T02:58:47;8.60;99.90
7129;DHT22;3606;52.930;8.644;2022-08-02T03:01:13;8.50;99.90
7129;DHT22;3606;52.930;8.644;2022-08-02T03:03:56;8.50;99.90
7129;DHT22;3606;52.930;8.644;2022-08-02T03:06:22;8.40;99.90
7129;DHT22;3606;52.930;8.644;2022-08-02T03:08:47;8.30;99.90
7129;DHT22;3606;52.930;8.644;2022-08-02T03:11:13;8.30;99.90
7129;DHT22;3606;52.930;8.644;2022-08-02T03:13:40;8.20;99.90
7129;DHT22;3606;52.930;8.644;2022-08-02T03:16:06;8.10;99.90
7129;DHT22;3606;52.930;8.644;2022-08-02T03:21:00;8.00;99.90
7129;DHT22;3606;52.930;8.644;2022-08-02T03:23:26;8.00;99.90
7129;DHT22;3606;52.930;8.644;2022-08-02T03:25:51;8.00;99.90
7129;DHT22;3606;52.930;8.644;2022-08-02T03:28:17;7.90;99.90
7129;DHT22;3606;52.930;8.644;2022-08-02T03:30:42;7.90;99.90
7129;DHT22;3606;52.930;8.644;2022-08-02T03:33:08;7.90;99.90
7129;DHT22;3606;52.930;8.644;2022-08-02T03:35:36;7.90;99.90
7129;DHT22;3606;52.930;8.644;2022-08-02T03:38:04;7.90;99.90
7129;DHT22;3606;52.930;8.644;2022-08-02T03:40:30;7.90;99.90
7129;DHT22;3606;52.930;8.644;2022-08-02T03:42:56;8.00;99.90
7129;DHT22;3606;52.930;8.644;2022-08-02T03:45:23;8.00;99.90
7129;DHT22;3606;52.930;8.644;2022-08-02T03:47:50;8.10;99.90
7129;DHT22;3606;52.930;8.644;2022-08-02T03:50:17;8.10;99.90
7129;DHT22;3606;52.930;8.644;2022-08-02T03:52:44;8.10;99.90
7129;DHT22;3606;52.930;8.644;2022-08-02T03:55:12;8.10;99.90
7129;DHT22;3606;52.930;8.644;2022-08-02T03:57:39;8.10;99.90
7129;DHT22;3606;52.930;8.644;2022-08-02T04:00:06;8.10;99.90
7129;DHT22;3606;52.930;8.644;2022-08-02T04:02:32;8.10;99.90
7129;DHT22;3606;52.930;8.644;2022-08-02T04:04:57;8.10;99.90
7129;DHT22;3606;52.930;8.644;2022-08-02T04:07:23;8.10;99.90
7129;DHT22;3606;52.930;8.644;2022-08-02T04:09:48;8.20;99.90
7129;DHT22;3606;52.930;8.644;2022-08-02T04:12:14;8.20;99.90
7129;DHT22;3606;52.930;8.644;2022-08-02T04:14:40;8.20;99.90
7129;DHT22;3606;52.930;8.644;2022-08-02T04:17:07;8.20;99.90
7129;DHT22;3606;52.930;8.644;2022-08-02T04:19:46;8.30;99.90
7129;DHT22;3606;52.930;8.644;2022-08-02T04:22:39;8.30;99.90
7129;DHT22;3606;52.930;8.644;2022-08-02T04:25:07;8.40;99.90
7129;DHT22;3606;52.930;8.644;2022-08-02T04:27:34;8.50;99.90
7129;DHT22;3606;52.930;8.644;2022-08-02T04:30:03;8.60;99.90
7129;DHT22;3606;52.930;8.644;2022-08-02T04:32:30;8.60;99.90
7129;DHT22;3606;52.930;8.644;2022-08-02T04:34:56;8.60;99.90
7129;DHT22;3606;52.930;8.644;2022-08-02T04:37:22;8.70;99.90
7129;DHT22;3606;52.930;8.644;2022-08-02T04:39:48;8.70;99.90
7129;DHT22;3606;52.930;8.644;2022-08-02T04:42:24;8.90;99.90
7129;DHT22;3606;52.930;8.644;2022-08-02T04:44:50;9.00;99.90
7129;DHT22;3606;52.930;8.644;2022-08-02T04:47:17;9.00;99.90
7129;DHT22;3606;52.930;8.644;2022-08-02T04:49:43;8.90;99.90
7129;DHT22;3606;52.930;8.644;2022-08-02T04:52:08;8.90;99.90
7129;DHT22;3606;52.930;8.644;2022-08-02T04:54:34;9.00;99.90
7129;DHT22;3606;52.930;8.644;2022-08-02T04:56:59;8.90;99.90
7129;DHT22;3606;52.930;8.644;2022-08-02T04:59:25;9.00;99.90
7129;DHT22;3606;52.930;8.644;2022-08-02T05:01:51;9.00;99.90
7129;DHT22;3606;52.930;8.644;2022-08-02T05:04:17;9.10;99.90
7129;DHT22;3606;52.930;8.644;2022-08-02T05:06:42;9.20;99.90
7129;DHT22;3606;52.930;8.644;2022-08-02T05:09:08;9.30;99.90
7129;DHT22;3606;52.930;8.644;2022-08-02T05:11:34;9.40;99.90
7129;DHT22;3606;52.930;8.644;2022-08-02T05:13:59;9.40;99.90
7129;DHT22;3606;52.930;8.644;2022-08-02T05:16:26;9.50;99.90
7129;DHT22;3606;52.930;8.644;2022-08-02T05:18:51;9.60;99.90
7129;DHT22;3606;52.930;8.644;2022-08-02T05:21:17;9.70;99.90
7129;DHT22;3606;52.930;8.644;2022-08-02T05:23:43;9.90;99.90
7129;DHT22;3606;52.930;8.644;2022-08-02T05:26:08;10.00;99.90
7129;DHT22;3606;52.930;8.644;2022-08-02T05:28:34;10.20;99.90
7129;DHT22;3606;52.930;8.644;2022-08-02T05:31:00;10.40;99.90
7129;DHT22;3606;52.930;8.644;2022-08-02T05:33:25;10.60;99.90
7129;DHT22;3606;52.930;8.644;2022-08-02T05:35:51;10.90;99.90
7129;DHT22;3606;52.930;8.644;2022-08-02T05:38:16;11.10;99.90
7129;DHT22;3606;52.930;8.644;2022-08-02T05:40:42;11.40;99.90
7129;DHT22;3606;52.930;8.644;2022-08-02T05:43:12;11.70;99.90
7129;DHT22;3606;52.930;8.644;2022-08-02T05:45:38;12.20;99.90
7129;DHT22;3606;52.930;8.644;2022-08-02T05:48:04;12.80;99.90
7129;DHT22;3606;52.930;8.644;2022-08-02T05:50:30;13.20;99.90
7129;DHT22;3606;52.930;8.644;2022-08-02T05:53:03;13.70;99.90
7129;DHT22;3606;52.930;8.644;2022-08-02T05:55:38;14.20;99.90
7129;DHT22;3606;52.930;8.644;2022-08-02T06:00:48;15.00;99.90
7129;DHT22;3606;52.930;8.644;2022-08-02T06:03:28;15.30;99.90
7129;DHT22;3606;52.930;8.644;2022-08-02T06:06:04;15.70;99.90
7129;DHT22;3606;52.930;8.644;2022-08-02T06:08:43;16.00;99.90
7129;DHT22;3606;52.930;8.644;2022-08-02T06:11:16;16.30;1.00
7129;DHT22;3606;52.930;8.644;2022-08-02T06:13:42;16.60;1.00
7129;DHT22;3606;52.930;8.644;2022-08-02T06:16:09;16.70;1.00
7129;DHT22;3606;52.930;8.644;2022-08-02T06:18:35;16.90;99.90
7129;DHT22;3606;52.930;8.644;2022-08-02T06:21:02;17.10;1.00
7129;DHT22;3606;52.930;8.644;2022-08-02T06:23:28;17.30;1.00
7129;DHT22;3606;52.930;8.644;2022-08-02T06:25:56;17.50;1.00
7129;DHT22;3606;52.930;8.644;2022-08-02T06:28:22;17.70;99.90
7129;DHT22;3606;52.930;8.644;2022-08-02T06:30:48;17.70;99.90
7129;DHT22;3606;52.930;8.644;2022-08-02T06:33:14;17.70;99.90
7129;DHT22;3606;52.930;8.644;2022-08-02T06:37:03;17.60;99.90
7129;DHT22;3606;52.930;8.644;2022-08-02T06:41:24;17.90;7.80
7129;DHT22;3606;52.930;8.644;2022-08-02T06:43:57;18.20;99.90
7129;DHT22;3606;52.930;8.644;2022-08-02T06:46:23;18.60;99.90
7129;DHT22;3606;52.930;8.644;2022-08-02T06:48:49;18.70;99.90
7129;DHT22;3606;52.930;8.644;2022-08-02T06:51:15;18.80;92.80
7129;DHT22;3606;52.930;8.644;2022-08-02T06:53:41;19.10;99.90
7129;DHT22;3606;52.930;8.644;2022-08-02T06:56:07;19.30;1.00
7129;DHT22;3606;52.930;8.644;2022-08-02T06:58:33;19.60;1.00
7129;DHT22;3606;52.930;8.644;2022-08-02T07:00:59;20.00;99.90
7129;DHT22;3606;52.930;8.644;2022-08-02T07:03:24;20.00;1.00
7129;DHT22;3606;52.930;8.644;2022-08-02T07:05:51;20.00;1.00
7129;DHT22;3606;52.930;8.644;2022-08-02T07:08:18;20.00;1.00
7129;DHT22;3606;52.930;8.644;2022-08-02T07:10:44;20.40;1.00
7129;DHT22;3606;52.930;8.644;2022-08-02T07:13:10;20.80;99.90
7129;DHT22;3606;52.930;8.644;2022-08-02T07:15:36;21.10;99.90
7129;DHT22;3606;52.930;8.644;2022-08-02T07:18:03;21.60;24.00
7129;DHT22;3606;52.930;8.644;2022-08-02T07:20:29;21.80;1.00
7129;DHT22;3606;52.930;8.644;2022-08-02T07:22:54;22.00;1.00
7129;DHT22;3606;52.930;8.644;2022-08-02T07:25:20;22.20;1.00
7129;DHT22;3606;52.930;8.644;2022-08-02T07:27:45;22.70;1.00
7129;DHT22;3606;52.930;8.644;2022-08-02T07:30:11;23.00;1.00
7129;DHT22;3606;52.930;8.644;2022-08-02T07:32:37;23.00;1.00
7129;DHT22;3606;52.930;8.644;2022-08-02T07:35:03;23.10;1.00
7129;DHT22;3606;52.930;8.644;2022-08-02T07:37:31;23.50;99.90
7129;DHT22;3606;52.930;8.644;2022-08-02T07:39:57;23.80;99.90
7129;DHT22;3606;52.930;8.644;2022-08-02T07:42:23;23.70;99.90
7129;DHT22;3606;52.930;8.644;2022-08-02T07:44:49;23.60;99.90
7129;DHT22;3606;52.930;8.644;2022-08-02T07:47:15;23.60;99.90
7129;DHT22;3606;52.930;8.644;2022-08-02T07:49:41;23.90;99.90
7129;DHT22;3606;52.930;8.644;2022-08-02T07:52:07;23.90;99.90
7129;DHT22;3606;52.930;8.644;2022-08-02T07:54:32;24.30;99.90
7129;DHT22;3606;52.930;8.644;2022-08-02T07:56:58;24.10;99.90
7129;DHT22;3606;52.930;8.644;2022-08-02T07:59:25;24.20;99.90
7129;DHT22;3606;52.930;8.644;2022-08-02T08:01:51;24.10;99.90
7129;DHT22;3606;52.930;8.644;2022-08-02T08:04:18;24.50;99.90
7129;DHT22;3606;52.930;8.644;2022-08-02T08:06:43;24.90;99.90
7129;DHT22;3606;52.930;8.644;2022-08-02T08:09:10;25.00;99.90
7129;DHT22;3606;52.930;8.644;2022-08-02T08:11:36;25.10;99.90
7129;DHT22;3606;52.930;8.644;2022-08-02T08:14:01;25.50;56.20
7129;DHT22;3606;52.930;8.644;2022-08-02T08:16:27;26.10;1.00
7129;DHT22;3606;52.930;8.644;2022-08-02T08:18:54;26.10;1.00
7129;DHT22;3606;52.930;8.644;2022-08-02T08:21:20;26.30;1.00
7129;DHT22;3606;52.930;8.644;2022-08-02T08:23:45;26.30;1.00
7129;DHT22;3606;52.930;8.644;2022-08-02T08:26:11;26.10;1.00
7129;DHT22;3606;52.930;8.644;2022-08-02T08:28:37;26.30;1.00
7129;DHT22;3606;52.930;8.644;2022-08-02T08:31:03;26.70;1.00
7129;DHT22;3606;52.930;8.644;2022-08-02T08:33:28;26.40;1.00
7129;DHT22;3606;52.930;8.644;2022-08-02T08:35:54;26.60;1.00
7129;DHT22;3606;52.930;8.644;2022-08-02T08:38:20;26.80;1.00
7129;DHT22;3606;52.930;8.644;2022-08-02T08:40:48;27.30;1.00
7129;DHT22;3606;52.930;8.644;2022-08-02T08:43:15;27.30;1.00
7129;DHT22;3606;52.930;8.644;2022-08-02T08:45:43;27.20;1.00
7129;DHT22;3606;52.930;8.644;2022-08-02T08:48:13;26.80;1.00
7129;DHT22;3606;52.930;8.644;2022-08-02T08:50:49;26.70;1.00
7129;DHT22;3606;52.930;8.644;2022-08-02T08:53:16;26.90;1.00
7129;DHT22;3606;52.930;8.644;2022-08-02T08:55:42;27.50;1.00
7129;DHT22;3606;52.930;8.644;2022-08-02T08:58:10;27.60;1.00
7129;DHT22;3606;52.930;8.644;2022-08-02T09:00:35;27.90;1.00
7129;DHT22;3606;52.930;8.644;2022-08-02T09:03:03;28.20;1.00
7129;DHT22;3606;52.930;8.644;2022-08-02T09:05:29;28.30;1.00
7129;DHT22;3606;52.930;8.644;2022-08-02T09:07:55;28.30;1.00
7129;DHT22;3606;52.930;8.644;2022-08-02T09:13:15;28.30;1.00
7129;DHT22;3606;52.930;8.644;2022-08-02T09:15:43;28.10;1.00
7129;DHT22;3606;52.930;8.644;2022-08-02T09:18:10;28.00;1.00
7129;DHT22;3606;52.930;8.644;2022-08-02T09:20:54;28.00;1.00
7129;DHT22;3606;52.930;8.644;2022-08-02T09:23:22;28.50;1.00
7129;DHT22;3606;52.930;8.644;2022-08-02T09:25:56;29.20;1.00
7129;DHT22;3606;52.930;8.644;2022-08-02T09:28:25;29.50;99.90
7129;DHT22;3606;52.930;8.644;2022-08-02T09:30:52;29.50;99.90
7129;DHT22;3606;52.930;8.644;2022-08-02T09:33:27;29.50;99.90
7129;DHT22;3606;52.930;8.644;2022-08-02T09:36:04;29.50;99.90
7129;DHT22;3606;52.930;8.644;2022-08-02T09:38:31;29.30;99.90
7129;DHT22;3606;52.930;8.644;2022-08-02T09:40:57;29.00;99.90
7129;DHT22;3606;52.930;8.644;2022-08-02T09:43:41;29.30;99.90
7129;DHT22;3606;52.930;8.644;2022-08-02T09:46:12;30.10;99.90
7129;DHT22;3606;52.930;8.644;2022-08-02T09:48:54;30.60;99.90
7129;DHT22;3606;52.930;8.644;2022-08-02T09:51:22;30.60;99.90
7129;DHT22;3606;52.930;8.644;2022-08-02T09:53:51;30.80;99.90
7129;DHT22;3606;52.930;8.644;2022-08-02T09:56:18;31.20;99.90
7129;DHT22;3606;52.930;8.644;2022-08-02T09:58:44;31.00;99.90
7129;DHT22;3606;52.930;8.644;2022-08-02T10:01:10;30.70;99.90
7129;DHT22;3606;52.930;8.644;2022-08-02T10:03:36;31.20;99.90
7129;DHT22;3606;52.930;8.644;2022-08-02T10:06:02;31.10;99.90
7129;DHT22;3606;52.930;8.644;2022-08-02T10:08:30;30.60;99.90
7129;DHT22;3606;52.930;8.644;2022-08-02T10:10:57;30.60;99.90
7129;DHT22;3606;52.930;8.644;2022-08-02T10:13:35;30.30;99.90
7129;DHT22;3606;52.930;8.644;2022-08-02T10:16:02;30.30;99.90
7129;DHT22;3606;52.930;8.644;2022-08-02T10:18:28;30.50;99.90
7129;DHT22;3606;52.930;8.644;2022-08-02T10:20:55;30.80;99.90
7129;DHT22;3606;52.930;8.644;2022-08-02T10:23:24;30.90;99.90
7129;DHT22;3606;52.930;8.644;2022-08-02T10:25:52;30.70;99.90
7129;DHT22;3606;52.930;8.644;2022-08-02T10:28:26;30.70;99.90
7129;DHT22;3606;52.930;8.644;2022-08-02T10:31:02;30.90;99.90
7129;DHT22;3606;52.930;8.644;2022-08-02T10:33:32;31.40;99.90
7129;DHT22;3606;52.930;8.644;2022-08-02T10:35:59;31.30;99.90
7129;DHT22;3606;52.930;8.644;2022-08-02T10:38:26;31.00;99.90
7129;DHT22;3606;52.930;8.644;2022-08-02T10:40:54;31.00;99.90
7129;DHT22;3606;52.930;8.644;2022-08-02T10:46:30;32.00;99.90
7129;DHT22;3606;52.930;8.644;2022-08-02T10:51:56;34.30;99.90
7129;DHT22;3606;52.930;8.644;2022-08-02T10:54:26;33.30;99.90
7129;DHT22;3606;52.930;8.644;2022-08-02T10:56:54;32.70;99.90
7129;DHT22;3606;52.930;8.644;2022-08-02T11:01:53;33.40;99.90
7129;DHT22;3606;52.930;8.644;2022-08-02T11:07:39;32.90;99.90
7129;DHT22;3606;52.930;8.644;2022-08-02T11:10:30;32.80;99.90
7129;DHT22;3606;52.930;8.644;2022-08-02T11:15:30;32.30;99.90
7129;DHT22;3606;52.930;8.644;2022-08-02T11:18:11;31.70;99.90
7129;DHT22;3606;52.930;8.644;2022-08-02T11:20:36;31.50;99.90
7129;DHT22;3606;52.930;8.644;2022-08-02T11:23:37;32.00;99.90
7129;DHT22;3606;52.930;8.644;2022-08-02T11:29:00;32.10;99.90
7129;DHT22;3606;52.930;8.644;2022-08-02T11:31:26;32.10;99.90
7129;DHT22;3606;52.930;8.644;2022-08-02T11:33:52;32.00;99.90
7129;DHT22;3606;52.930;8.644;2022-08-02T11:36:18;31.90;99.90
7129;DHT22;3606;52.930;8.644;2022-08-02T11:38:45;31.40;99.90
7129;DHT22;3606;52.930;8.644;2022-08-02T11:41:20;31.10;99.90
7129;DHT22;3606;52.930;8.644;2022-08-02T11:43:46;31.30;99.90
7129;DHT22;3606;52.930;8.644;2022-08-02T11:46:18;31.40;99.90
7129;DHT22;3606;52.930;8.644;2022-08-02T11:48:43;31.20;99.90
7129;DHT22;3606;52.930;8.644;2022-08-02T11:51:14;31.40;99.90
7129;DHT22;3606;52.930;8.644;2022-08-02T11:56:15;31.50;99.90
7129;DHT22;3606;52.930;8.644;2022-08-02T11:58:41;31.50;99.90
7129;DHT22;3606;52.930;8.644;2022-08-02T12:01:24;31.70;99.90
7129;DHT22;3606;52.930;8.644;2022-08-02T12:03:49;32.10;99.90
7129;DHT22;3606;52.930;8.644;2022-08-02T12:06:17;32.20;99.90
7129;DHT22;3606;52.930;8.644;2022-08-02T12:08:43;32.30;99.90
7129;DHT22;3606;52.930;8.644;2022-08-02T12:11:08;32.50;99.90
7129;DHT22;3606;52.930;8.644;2022-08-02T12:13:42;32.30;99.90
7129;DHT22;3606;52.930;8.644;2022-08-02T12:16:12;32.00;99.90
7129;DHT22;3606;52.930;8.644;2022-08-02T12:18:57;31.80;99.90
7129;DHT22;3606;52.930;8.644;2022-08-02T12:21:42;31.80;99.90
7129;DHT22;3606;52.930;8.644;2022-08-02T12:24:08;31.30;99.90
7129;DHT22;3606;52.930;8.644;2022-08-02T12:26:45;31.00;99.90
7129;DHT22;3606;52.930;8.644;2022-08-02T12:29:12;31.30;99.90
7129;DHT22;3606;52.930;8.644;2022-08-02T12:31:43;31.60;99.90
7129;DHT22;3606;52.930;8.644;2022-08-02T12:34:30;31.90;99.90
7129;DHT22;3606;52.930;8.644;2022-08-02T12:37:04;31.70;99.90
7129;DHT22;3606;52.930;8.644;2022-08-02T12:39:37;32.00;99.90
7129;DHT22;3606;52.930;8.644;2022-08-02T12:42:04;32.20;99.90
7129;DHT22;3606;52.930;8.644;2022-08-02T12:44:30;32.40;99.90
7129;DHT22;3606;52.930;8.644;2022-08-02T12:47:00;31.90;99.90
7129;DHT22;3606;52.930;8.644;2022-08-02T12:49:26;31.70;99.90
7129;DHT22;3606;52.930;8.644;2022-08-02T12:51:52;31.80;99.90
7129;DHT22;3606;52.930;8.644;2022-08-02T12:54:24;31.50;99.90
7129;DHT22;3606;52.930;8.644;2022-08-02T12:56:51;31.30;99.90
7129;DHT22;3606;52.930;8.644;2022-08-02T12:59:35;31.10;99.90
7129;DHT22;3606;52.930;8.644;2022-08-02T13:02:03;32.00;99.90
7129;DHT22;3606;52.930;8.644;2022-08-02T13:04:29;33.10;99.90
7129;DHT22;3606;52.930;8.644;2022-08-02T13:06:55;33.50;99.90
7129;DHT22;3606;52.930;8.644;2022-08-02T13:09:21;33.50;99.90
7129;DHT22;3606;52.930;8.644;2022-08-02T13:11:47;33.30;99.90
7129;DHT22;3606;52.930;8.644;2022-08-02T13:14:13;32.80;99.90
7129;DHT22;3606;52.930;8.644;2022-08-02T13:16:39;32.90;99.90
7129;DHT22;3606;52.930;8.644;2022-08-02T13:19:05;33.10;99.90
7129;DHT22;3606;52.930;8.644;2022-08-02T13:21:31;33.60;99.90
7129;DHT22;3606;52.930;8.644;2022-08-02T13:23:57;34.30;99.90
7129;DHT22;3606;52.930;8.644;2022-08-02T13:26:22;34.80;99.90
7129;DHT22;3606;52.930;8.644;2022-08-02T13:28:48;33.70;99.90
7129;DHT22;3606;52.930;8.644;2022-08-02T13:31:14;33.90;99.90
7129;DHT22;3606;52.930;8.644;2022-08-02T13:33:39;34.00;99.90
7129;DHT22;3606;52.930;8.644;2022-08-02T13:36:05;33.90;99.90
7129;DHT22;3606;52.930;8.644;2022-08-02T13:38:33;34.00;99.90
7129;DHT22;3606;52.930;8.644;2022-08-02T13:40:58;34.30;99.90
7129;DHT22;3606;52.930;8.644;2022-08-02T13:43:33;33.20;99.90
7129;DHT22;3606;52.930;8.644;2022-08-02T13:45:59;32.80;99.90
7129;DHT22;3606;52.930;8.644;2022-08-02T13:48:25;33.00;99.90
7129;DHT22;3606;52.930;8.644;2022-08-02T13:50:51;33.50;99.90
7129;DHT22;3606;52.930;8.644;2022-08-02T13:53:16;33.70;99.90
7129;DHT22;3606;52.930;8.644;2022-08-02T13:55:42;33.50;99.90
7129;DHT22;3606;52.930;8.644;2022-08-02T13:58:07;33.60;99.90
7129;DHT22;3606;52.930;8.644;2022-08-02T14:00:34;34.00;99.90
7129;DHT22;3606;52.930;8.644;2022-08-02T14:02:59;34.40;99.90
7129;DHT22;3606;52.930;8.644;2022-08-02T14:05:25;34.50;99.90
7129;DHT22;3606;52.930;8.644;2022-08-02T14:07:58;34.70;99.90
7129;DHT22;3606;52.930;8.644;2022-08-02T14:10:24;34.90;99.90
7129;DHT22;3606;52.930;8.644;2022-08-02T14:12:53;34.30;99.90
7129;DHT22;3606;52.930;8.644;2022-08-02T14:15:19;34.50;99.90
7129;DHT22;3606;52.930;8.644;2022-08-02T14:17:44;34.70;99.90
7129;DHT22;3606;52.930;8.644;2022-08-02T14:20:11;35.40;99.90
7129;DHT22;3606;52.930;8.644;2022-08-02T14:22:36;35.10;99.90
7129;DHT22;3606;52.930;8.644;2022-08-02T14:25:02;34.70;99.90
7129;DHT22;3606;52.930;8.644;2022-08-02T14:27:28;34.80;99.90
7129;DHT22;3606;52.930;8.644;2022-08-02T14:29:55;34.30;99.90
7129;DHT22;3606;52.930;8.644;2022-08-02T14:32:21;34.40;99.90
7129;DHT22;3606;52.930;8.644;2022-08-02T14:34:47;34.30;99.90
7129;DHT22;3606;52.930;8.644;2022-08-02T14:37:13;34.50;99.90
7129;DHT22;3606;52.930;8.644;2022-08-02T14:39:38;34.40;99.90
7129;DHT22;3606;52.930;8.644;2022-08-02T14:42:04;34.40;99.90
7129;DHT22;3606;52.930;8.644;2022-08-02T14:44:30;33.70;99.90
7129;DHT22;3606;52.930;8.644;2022-08-02T14:46:56;33.80;99.90
7129;DHT22;3606;52.930;8.644;2022-08-02T14:49:21;34.00;99.90
7129;DHT22;3606;52.930;8.644;2022-08-02T14:51:47;34.20;99.90
7129;DHT22;3606;52.930;8.644;2022-08-02T14:54:13;34.10;99.90
7129;DHT22;3606;52.930;8.644;2022-08-02T14:56:38;33.90;99.90
7129;DHT22;3606;52.930;8.644;2022-08-02T14:59:04;33.10;99.90
7129;DHT22;3606;52.930;8.644;2022-08-02T15:01:30;32.20;99.90
7129;DHT22;3606;52.930;8.644;2022-08-02T15:03:56;31.80;99.90
7129;DHT22;3606;52.930;8.644;2022-08-02T15:06:22;31.10;99.90
7129;DHT22;3606;52.930;8.644;2022-08-02T15:08:47;30.60;99.90
7129;DHT22;3606;52.930;8.644;2022-08-02T15:11:13;30.40;99.90
7129;DHT22;3606;52.930;8.644;2022-08-02T15:13:38;30.50;99.90
7129;DHT22;3606;52.930;8.644;2022-08-02T15:16:04;30.50;99.90
7129;DHT22;3606;52.930;8.644;2022-08-02T15:18:31;30.50;99.90
7129;DHT22;3606;52.930;8.644;2022-08-02T15:20:57;30.60;99.90
7129;DHT22;3606;52.930;8.644;2022-08-02T15:23:23;30.40;99.90
7129;DHT22;3606;52.930;8.644;2022-08-02T15:25:49;30.20;99.90
7129;DHT22;3606;52.930;8.644;2022-08-02T15:28:15;30.20;99.90
7129;DHT22;3606;52.930;8.644;2022-08-02T15:30:41;30.40;99.90
7129;DHT22;3606;52.930;8.644;2022-08-02T15:33:07;30.40;99.90
7129;DHT22;3606;52.930;8.644;2022-08-02T15:35:32;30.50;99.90
7129;DHT22;3606;52.930;8.644;2022-08-02T15:37:58;30.40;99.90
7129;DHT22;3606;52.930;8.644;2022-08-02T15:40:24;30.40;99.90
7129;DHT22;3606;52.930;8.644;2022-08-02T15:42:50;30.30;99.90
7129;DHT22;3606;52.930;8.644;2022-08-02T15:45:16;30.10;99.90
7129;DHT22;3606;52.930;8.644;2022-08-02T15:47:46;30.00;99.90
7129;DHT22;3606;52.930;8.644;2022-08-02T15:50:12;30.10;99.90
7129;DHT22;3606;52.930;8.644;2022-08-02T15:52:38;30.20;99.90
7129;DHT22;3606;52.930;8.644;2022-08-02T15:55:04;30.10;99.90
7129;DHT22;3606;52.930;8.644;2022-08-02T15:57:29;30.20;99.90
7129;DHT22;3606;52.930;8.644;2022-08-02T15:59:55;30.20;99.90
7129;DHT22;3606;52.930;8.644;2022-08-02T16:02:21;30.60;99.90
7129;DHT22;3606;52.930;8.644;2022-08-02T16:04:47;30.70;99.90
7129;DHT22;3606;52.930;8.644;2022-08-02T16:07:12;30.70;99.90
7129;DHT22;3606;52.930;8.644;2022-08-02T16:09:38;30.60;99.90
7129;DHT22;3606;52.930;8.644;2022-08-02T16:12:04;30.40;99.90
7129;DHT22;3606;52.930;8.644;2022-08-02T16:14:31;30.20;99.90
7129;DHT22;3606;52.930;8.644;2022-08-02T16:16:57;30.00;99.90
7129;DHT22;3606;52.930;8.644;2022-08-02T16:19:23;30.00;99.90
7129;DHT22;3606;52.930;8.644;2022-08-02T16:21:49;30.00;99.90
7129;DHT22;3606;52.930;8.644;2022-08-02T16:24:15;30.00;99.90
7129;DHT22;3606;52.930;8.644;2022-08-02T16:26:40;29.90;99.90
7129;DHT22;3606;52.930;8.644;2022-08-02T16:29:06;29.90;99.90
7129;DHT22;3606;52.930;8.644;2022-08-02T16:31:32;29.80;99.90
7129;DHT22;3606;52.930;8.644;2022-08-02T16:33:58;29.60;99.90
7129;DHT22;3606;52.930;8.644;2022-08-02T16:36:24;29.40;99.90
7129;DHT22;3606;52.930;8.644;2022-08-02T16:38:52;29.40;99.90
7129;DHT22;3606;52.930;8.644;2022-08-02T16:41:18;29.20;99.90
7129;DHT22;3606;52.930;8.644;2022-08-02T16:43:43;29.00;99.90
7129;DHT22;3606;52.930;8.644;2022-08-02T16:46:09;28.90;99.90
7129;DHT22;3606;52.930;8.644;2022-08-02T16:48:34;28.60;99.90
7129;DHT22;3606;52.930;8.644;2022-08-02T16:51:00;28.40;99.90
7129;DHT22;3606;52.930;8.644;2022-08-02T16:53:26;28.30;99.90
7129;DHT22;3606;52.930;8.644;2022-08-02T16:55:51;28.40;99.90
7129;DHT22;3606;52.930;8.644;2022-08-02T16:58:17;28.50;99.90